Wan Hai 273 — 9V7586 — position and weather

sailwx.info

Track history (hours):
 
Tides and Currents Weather Stations Pressure Air Temp Water Temp Dewpoint Dewpoint Depression Visibility Wind Speed Wind Dir Waves Ship Positions

Wan Hai 273

Last reported at 2015-May-03 12:25 UTC. Time now 2015-May-03 12:51 UTC.
Position N 35°56' E 120°48'.

Length 172 m; draft 7.2 m.

Type: Cargo ship. MMSI: 566406000.

Date/timePositionNaut miles runAvg speedWind from/ knotsBaromVisibWave heightAir tempDewpointWater temp
2015-May-03 12:25N 35°56' E 120°48'1416.8
2015-May-03 11:33N 35°59' E 120°31'1212.3
2015-May-03 10:33N 36°02' E 120°16'3 2.8
2015-May-03 09:33N 36°01' E 120°13'0 0.0
2015-May-03 08:33N 36°01' E 120°13'0 0.0
2015-May-03 07:33N 36°01' E 120°13'0 0.0
2015-May-03 06:33N 36°01' E 120°13'0 0.0
2015-May-03 05:33N 36°01' E 120°13'0 0.0
2015-May-03 04:25N 36°01' E 120°13'0 0.0
2015-May-03 03:31N 36°01' E 120°13'0 0.0
2015-May-03 02:33N 36°01' E 120°13'0 0.0
2015-May-03 01:30N 36°01' E 120°13'0 0.0
2015-May-03 00:33N 36°01' E 120°13'0 0.0
2015-May-02 23:28N 36°01' E 120°13'0 0.0
2015-May-02 22:32N 36°01' E 120°13'0 0.0
2015-May-02 21:32N 36°01' E 120°13'5 4.6
2015-May-02 20:29N 36°02' E 120°19'1010.4
2015-May-02 19:31N 35°60' E 120°31'1313.4
2015-May-02 18:32N 35°55' E 120°46'  
2015-Apr-28 12:20N 34°35' E 139°12'1415.9
2015-Apr-28 11:26N 34°40' E 139°29'1415.8
2015-Apr-28 10:33N 34°52' E 139°36'1616.3
2015-Apr-28 09:33N 35°07' E 139°44'1211.8
2015-Apr-28 08:33N 35°18' E 139°44'8 8.1
2015-Apr-28 07:31N 35°27' E 139°41'0 0.0
2015-Apr-28 06:31N 35°27' E 139°41'0 0.0
2015-Apr-28 05:31N 35°27' E 139°41'0 0.0
2015-Apr-28 04:31N 35°27' E 139°41'0 0.0
2015-Apr-28 03:31N 35°27' E 139°41'0 0.0
2015-Apr-28 02:31N 35°27' E 139°41'0 0.1
2015-Apr-28 01:31N 35°27' E 139°41'0 0.0
2015-Apr-28 00:31N 35°27' E 139°41'0 0.0
2015-Apr-27 23:31N 35°27' E 139°41'0 0.0
2015-Apr-27 22:31N 35°27' E 139°41'0 0.0
2015-Apr-27 21:31N 35°27' E 139°41'0 0.0
2015-Apr-27 20:31N 35°27' E 139°41'0 0.0
2015-Apr-27 19:31N 35°27' E 139°41'0 0.0
2015-Apr-27 18:31N 35°27' E 139°41'0 0.0
2015-Apr-27 17:31N 35°27' E 139°41'0 0.0
2015-Apr-27 16:31N 35°27' E 139°41'0 0.0
2015-Apr-27 15:31N 35°27' E 139°41'0 0.0
2015-Apr-27 14:31N 35°27' E 139°41'0 0.1
2015-Apr-27 13:33N 35°27' E 139°41'6 5.7
2015-Apr-27 12:33N 35°28' E 139°48'7 7.1
2015-Apr-27 11:33N 35°35' E 139°48'2 1.8
2015-Apr-27 10:29N 35°36' E 139°46'0 0.0
2015-Apr-27 09:32N 35°36' E 139°46'0 0.0
2015-Apr-27 08:32N 35°36' E 139°46'0 0.0
2015-Apr-27 07:29N 35°36' E 139°46'0 0.0
2015-Apr-27 06:32N 35°36' E 139°46'0 0.0
2015-Apr-27 05:32N 35°36' E 139°46'0 0.0
2015-Apr-27 04:32N 35°36' E 139°46'0 0.0
2015-Apr-27 03:32N 35°36' E 139°46'0 0.0
2015-Apr-27 02:32N 35°36' E 139°46'0 0.0
2015-Apr-27 01:32N 35°36' E 139°46'0 0.0
2015-Apr-27 00:23N 35°36' E 139°46'0 0.0
2015-Apr-26 23:32N 35°36' E 139°46'0 0.0
2015-Apr-26 22:29N 35°36' E 139°46'4 4.7
2015-Apr-26 21:34N 35°33' E 139°50'1110.8
2015-Apr-26 20:33N 35°23' E 139°46'1111.2
2015-Apr-26 19:33N 35°12' E 139°47'9 8.8
2015-Apr-26 18:33N 35°04' E 139°44'1514.9
2015-Apr-26 17:33N 34°55' E 139°30'1817.1
2015-Apr-26 16:32N 34°43' E 139°14'5216.7
2015-Apr-26 13:24N 34°12' E 138°23'1517.3
2015-Apr-26 12:33N 34°05' E 138°07'  
Track history (hours):
 
Tides and Currents Weather Stations Pressure Air Temp Water Temp Dewpoint Dewpoint Depression Visibility Wind Speed Wind Dir Waves Ship Positions

Wan Hai 273

Last reported at 2015-May-03 12:25 UTC. Time now 2015-May-03 12:51 UTC.
Position N 35°56' E 120°48'.

Length 172 m; draft 7.2 m.

Type: Cargo ship. MMSI: 566406000.

Date/timePositionNaut miles runAvg speedWind from/ knotsBaromVisibWave heightAir tempDewpointWater temp
2015-May-03 12:25N 35°56' E 120°48'1416.8
2015-May-03 11:33N 35°59' E 120°31'1212.3
2015-May-03 10:33N 36°02' E 120°16'3 2.8
2015-May-03 09:33N 36°01' E 120°13'0 0.0
2015-May-03 08:33N 36°01' E 120°13'0 0.0
2015-May-03 07:33N 36°01' E 120°13'0 0.0
2015-May-03 06:33N 36°01' E 120°13'0 0.0
2015-May-03 05:33N 36°01' E 120°13'0 0.0
2015-May-03 04:25N 36°01' E 120°13'0 0.0
2015-May-03 03:31N 36°01' E 120°13'0 0.0
2015-May-03 02:33N 36°01' E 120°13'0 0.0
2015-May-03 01:30N 36°01' E 120°13'0 0.0
2015-May-03 00:33N 36°01' E 120°13'0 0.0
2015-May-02 23:28N 36°01' E 120°13'0 0.0
2015-May-02 22:32N 36°01' E 120°13'0 0.0
2015-May-02 21:32N 36°01' E 120°13'5 4.6
2015-May-02 20:29N 36°02' E 120°19'1010.4
2015-May-02 19:31N 35°60' E 120°31'1313.4
2015-May-02 18:32N 35°55' E 120°46'  
2015-Apr-28 12:20N 34°35' E 139°12'1415.9
2015-Apr-28 11:26N 34°40' E 139°29'1415.8
2015-Apr-28 10:33N 34°52' E 139°36'1616.3
2015-Apr-28 09:33N 35°07' E 139°44'1211.8
2015-Apr-28 08:33N 35°18' E 139°44'8 8.1
2015-Apr-28 07:31N 35°27' E 139°41'0 0.0
2015-Apr-28 06:31N 35°27' E 139°41'0 0.0
2015-Apr-28 05:31N 35°27' E 139°41'0 0.0
2015-Apr-28 04:31N 35°27' E 139°41'0 0.0
2015-Apr-28 03:31N 35°27' E 139°41'0 0.0
2015-Apr-28 02:31N 35°27' E 139°41'0 0.1
2015-Apr-28 01:31N 35°27' E 139°41'0 0.0
2015-Apr-28 00:31N 35°27' E 139°41'0 0.0
2015-Apr-27 23:31N 35°27' E 139°41'0 0.0
2015-Apr-27 22:31N 35°27' E 139°41'0 0.0
2015-Apr-27 21:31N 35°27' E 139°41'0 0.0
2015-Apr-27 20:31N 35°27' E 139°41'0 0.0
2015-Apr-27 19:31N 35°27' E 139°41'0 0.0
2015-Apr-27 18:31N 35°27' E 139°41'0 0.0
2015-Apr-27 17:31N 35°27' E 139°41'0 0.0
2015-Apr-27 16:31N 35°27' E 139°41'0 0.0
2015-Apr-27 15:31N 35°27' E 139°41'0 0.0
2015-Apr-27 14:31N 35°27' E 139°41'0 0.1
2015-Apr-27 13:33N 35°27' E 139°41'6 5.7
2015-Apr-27 12:33N 35°28' E 139°48'7 7.1
2015-Apr-27 11:33N 35°35' E 139°48'2 1.8
2015-Apr-27 10:29N 35°36' E 139°46'0 0.0
2015-Apr-27 09:32N 35°36' E 139°46'0 0.0
2015-Apr-27 08:32N 35°36' E 139°46'0 0.0
2015-Apr-27 07:29N 35°36' E 139°46'0 0.0
2015-Apr-27 06:32N 35°36' E 139°46'0 0.0
2015-Apr-27 05:32N 35°36' E 139°46'0 0.0
2015-Apr-27 04:32N 35°36' E 139°46'0 0.0
2015-Apr-27 03:32N 35°36' E 139°46'0 0.0
2015-Apr-27 02:32N 35°36' E 139°46'0 0.0
2015-Apr-27 01:32N 35°36' E 139°46'0 0.0
2015-Apr-27 00:23N 35°36' E 139°46'0 0.0
2015-Apr-26 23:32N 35°36' E 139°46'0 0.0
2015-Apr-26 22:29N 35°36' E 139°46'4 4.7
2015-Apr-26 21:34N 35°33' E 139°50'1110.8
2015-Apr-26 20:33N 35°23' E 139°46'1111.2
2015-Apr-26 19:33N 35°12' E 139°47'9 8.8
2015-Apr-26 18:33N 35°04' E 139°44'1514.9
2015-Apr-26 17:33N 34°55' E 139°30'1817.1
2015-Apr-26 16:32N 34°43' E 139°14'5216.7
2015-Apr-26 13:24N 34°12' E 138°23'1517.3
2015-Apr-26 12:33N 34°05' E 138°07'  

Dump ship's entire track history